createdAt,value
2019-04-05T00:01:54.406Z,17.48
2019-04-05T00:04:22.794Z,17.45
2019-04-05T00:06:51.306Z,18.05
2019-04-05T00:09:19.660Z,17.57
2019-04-05T00:11:48.190Z,18.05
2019-04-05T00:14:16.599Z,17.48
2019-04-05T00:16:46.121Z,18.12
2019-04-05T00:19:14.474Z,17.95
2019-04-05T00:21:42.877Z,17.70
2019-04-05T00:24:11.313Z,17.70
2019-04-05T00:26:39.742Z,17.98
2019-04-05T00:29:08.050Z,16.60
2019-04-05T00:31:36.448Z,16.30
2019-04-05T00:34:04.879Z,16.40
2019-04-05T00:36:33.405Z,16.73
2019-04-05T00:39:01.791Z,17.87
2019-04-05T00:41:32.906Z,17.20
2019-04-05T00:44:00.261Z,17.80
2019-04-05T00:46:28.558Z,16.42
2019-04-05T00:48:58.194Z,17.70
2019-04-05T00:51:26.588Z,16.40
2019-04-05T00:53:54.989Z,16.65
2019-04-05T00:56:24.136Z,16.90
2019-04-05T00:58:52.532Z,17.25
2019-04-05T01:01:20.962Z,17.15
2019-04-05T01:03:49.327Z,16.70
2019-04-05T01:06:17.685Z,16.17
2019-04-05T01:08:46.210Z,17.15
2019-04-05T01:11:14.669Z,17.77
2019-04-05T01:13:43.046Z,17.24
2019-04-05T01:16:11.504Z,16.27
2019-04-05T01:18:39.917Z,16.67
2019-04-05T01:21:08.305Z,17.07
2019-04-05T01:23:36.698Z,17.02
2019-04-05T01:26:05.135Z,17.27
2019-04-05T01:28:33.595Z,17.77
2019-04-05T01:31:01.985Z,16.90
2019-04-05T01:33:30.411Z,16.80
2019-04-05T01:35:58.943Z,16.93
2019-04-05T01:38:27.401Z,16.95
2019-04-05T01:40:56.294Z,18.27
2019-04-05T01:43:24.726Z,16.87
2019-04-05T01:45:54.263Z,16.87
2019-04-05T01:48:22.789Z,16.87
2019-04-05T01:50:51.121Z,17.20
2019-04-05T01:53:19.550Z,16.25
2019-04-05T01:55:47.944Z,17.23
2019-04-05T01:58:16.394Z,16.95
2019-04-05T02:00:44.858Z,15.98
2019-04-05T02:03:13.348Z,16.17
2019-04-05T02:05:42.150Z,16.10
2019-04-05T02:08:10.520Z,16.73
2019-04-05T02:10:38.999Z,16.47
2019-04-05T02:13:07.439Z,17.00
2019-04-05T02:15:35.909Z,17.20
2019-04-05T02:18:04.292Z,16.15
2019-04-05T02:20:32.848Z,16.90
2019-04-05T02:23:01.281Z,16.20
2019-04-05T02:25:29.729Z,17.35
2019-04-05T02:27:58.121Z,17.65
2019-04-05T02:30:26.414Z,17.32
2019-04-05T02:32:55.032Z,16.60
2019-04-05T02:35:23.426Z,17.40
2019-04-05T02:37:51.881Z,16.30
2019-04-05T02:40:20.869Z,17.48
2019-04-05T02:42:49.975Z,16.82
2019-04-05T02:45:18.465Z,18.63
2019-04-05T02:47:51.847Z,17.52
2019-04-05T02:50:20.297Z,18.03
2019-04-05T02:52:48.667Z,16.73
2019-04-05T02:55:17.974Z,18.57
2019-04-05T02:57:46.367Z,18.70
2019-04-05T03:00:14.755Z,18.35
2019-04-05T03:02:43.195Z,16.30
2019-04-05T03:05:11.609Z,17.82
2019-04-05T03:07:39.976Z,17.55
2019-04-05T03:10:08.441Z,17.95
2019-04-05T03:12:36.784Z,18.25
2019-04-05T03:15:06.990Z,17.92
2019-04-05T03:17:36.144Z,18.60
2019-04-05T03:20:05.665Z,17.32
2019-04-05T03:22:34.069Z,18.50
2019-04-05T03:25:02.421Z,18.60
2019-04-05T03:27:33.409Z,19.02
2019-04-05T03:30:02.225Z,19.67
2019-04-05T03:32:32.248Z,18.30
2019-04-05T03:35:00.622Z,18.95
2019-04-05T03:37:29.051Z,18.92
2019-04-05T03:39:58.173Z,20.26
2019-04-05T03:42:26.875Z,19.77
2019-04-05T03:44:55.285Z,18.73
2019-04-05T03:47:23.658Z,19.77
2019-04-05T03:49:52.114Z,19.42
2019-04-05T03:52:20.477Z,18.92
2019-04-05T03:54:48.861Z,20.30
2019-04-05T03:57:18.050Z,20.10
2019-04-05T03:59:46.535Z,17.55
2019-04-05T04:02:15.056Z,18.75
2019-04-05T04:04:43.468Z,19.48
2019-04-05T04:07:11.896Z,19.25
2019-04-05T04:09:40.288Z,20.35
2019-04-05T04:12:08.663Z,22.93
2019-04-05T04:14:37.055Z,20.30
2019-04-05T04:17:12.612Z,20.55
2019-04-05T04:19:35.618Z,19.67
2019-04-05T04:22:15.925Z,18.95
2019-04-05T04:24:45.011Z,19.70
2019-04-05T04:27:13.374Z,20.02
2019-04-05T04:29:41.763Z,19.27
2019-04-05T04:32:10.134Z,20.75
2019-04-05T04:34:38.462Z,20.92
2019-04-05T04:37:06.959Z,20.52
2019-04-05T04:39:35.341Z,21.90
2019-04-05T04:42:03.800Z,21.20
2019-04-05T04:44:32.220Z,19.23
2019-04-05T04:47:00.656Z,19.23
2019-04-05T04:49:29.053Z,20.80
2019-04-05T04:51:57.433Z,19.02
2019-04-05T04:54:25.933Z,19.32
2019-04-05T04:56:54.320Z,18.35
2019-04-05T04:59:22.790Z,19.70
2019-04-05T05:01:51.324Z,19.12
2019-04-05T05:04:20.107Z,18.15
2019-04-05T05:06:48.423Z,17.98
2019-04-05T05:09:16.887Z,17.95
2019-04-05T05:11:45.323Z,19.60
2019-04-05T05:14:13.749Z,17.60
2019-04-05T05:16:42.189Z,18.52
2019-04-05T05:19:10.746Z,17.67
2019-04-05T05:21:39.170Z,18.20
2019-04-05T05:24:07.550Z,18.75
2019-04-05T05:26:36.042Z,18.27
2019-04-05T05:29:04.449Z,17.20
2019-04-05T05:31:32.891Z,17.23
2019-04-05T05:34:01.335Z,17.93
2019-04-05T05:36:29.701Z,17.48
2019-04-05T05:38:58.090Z,17.07
2019-04-05T05:41:26.530Z,16.67
2019-04-05T05:43:54.995Z,15.08
2019-04-05T05:46:23.440Z,17.50
2019-04-05T05:48:51.803Z,16.85
2019-04-05T05:51:20.202Z,16.40
2019-04-05T05:53:48.588Z,15.78
2019-04-05T05:56:16.969Z,15.98
2019-04-05T05:58:45.346Z,16.15
2019-04-05T06:01:13.879Z,14.87
2019-04-05T06:03:42.316Z,15.25
2019-04-05T06:06:10.702Z,15.48
2019-04-05T06:08:39.169Z,15.43
2019-04-05T06:11:07.541Z,15.05
2019-04-05T06:13:35.929Z,14.60
2019-04-05T06:16:04.284Z,14.85
2019-04-05T06:18:33.155Z,13.16
2019-04-05T06:21:03.412Z,12.78
2019-04-05T06:23:33.982Z,13.55
2019-04-05T06:26:01.786Z,12.25
2019-04-05T06:28:30.366Z,10.90
2019-04-05T06:30:58.713Z,12.50
2019-04-05T06:33:31.806Z,11.60
2019-04-05T06:35:57.282Z,12.35
2019-04-05T06:38:25.800Z,12.63
2019-04-05T06:40:55.052Z,10.58
2019-04-05T06:43:23.485Z,10.88
2019-04-05T06:45:52.029Z,11.65
2019-04-05T06:48:20.455Z,11.43
2019-04-05T06:50:48.853Z,11.83
2019-04-05T06:53:17.271Z,11.80
2019-04-05T06:55:45.764Z,12.03
2019-04-05T06:58:19.834Z,12.13
2019-04-05T07:00:56.320Z,11.40
2019-04-05T07:03:15.014Z,11.22
2019-04-05T07:05:43.419Z,11.40
2019-04-05T07:08:11.904Z,11.00
2019-04-05T07:10:40.339Z,11.20
2019-04-05T07:13:08.962Z,11.90
2019-04-05T07:15:37.360Z,12.50
2019-04-05T07:18:05.776Z,11.78
2019-04-05T07:20:34.222Z,12.13
2019-04-05T07:23:02.627Z,12.03
2019-04-05T07:25:31.047Z,12.03
2019-04-05T07:27:59.528Z,12.03
2019-04-05T07:30:28.993Z,11.33
2019-04-05T07:32:57.464Z,12.20
2019-04-05T07:35:33.306Z,12.70
2019-04-05T07:37:55.948Z,12.68
2019-04-05T07:40:24.430Z,9.88
2019-04-05T07:42:53.199Z,11.75
2019-04-05T07:45:21.673Z,12.00
2019-04-05T07:47:50.130Z,12.20
2019-04-05T07:50:18.619Z,11.75
2019-04-05T07:52:47.045Z,11.90
2019-04-05T07:55:15.459Z,12.53
2019-04-05T07:57:43.899Z,11.90
2019-04-05T08:00:21.263Z,13.50
2019-04-05T08:02:49.691Z,12.53
2019-04-05T08:05:18.192Z,11.95
2019-04-05T08:07:46.701Z,12.82
2019-04-05T08:10:15.155Z,12.70
2019-04-05T08:12:43.568Z,12.73
2019-04-05T08:15:11.988Z,12.93
2019-04-05T08:17:40.396Z,12.93
2019-04-05T08:20:08.833Z,12.80
2019-04-05T08:22:37.301Z,12.95
2019-04-05T08:25:05.720Z,12.68
2019-04-05T08:27:35.060Z,12.77
2019-04-05T08:30:04.322Z,12.70
2019-04-05T08:32:32.717Z,12.28
2019-04-05T08:35:01.127Z,11.83
2019-04-05T08:37:29.539Z,12.90
2019-04-05T08:39:57.929Z,12.07
2019-04-05T08:42:26.293Z,12.58
2019-04-05T08:44:54.629Z,12.10
2019-04-05T08:47:22.922Z,13.10
2019-04-05T08:49:51.322Z,12.37
2019-04-05T08:52:19.732Z,13.43
2019-04-05T08:54:48.161Z,13.35
2019-04-05T08:57:16.485Z,13.03
2019-04-05T08:59:44.888Z,14.28
2019-04-05T09:02:13.251Z,12.33
2019-04-05T09:04:41.666Z,13.40
2019-04-05T09:07:10.102Z,14.58
2019-04-05T09:09:38.480Z,14.10
2019-04-05T09:12:06.971Z,13.72
2019-04-05T09:14:35.335Z,14.35
2019-04-05T09:17:03.726Z,13.78
2019-04-05T09:19:32.130Z,13.00
2019-04-05T09:22:00.654Z,14.15
2019-04-05T09:24:29.194Z,12.40
2019-04-05T09:26:57.599Z,12.70
2019-04-05T09:29:26.073Z,12.40
2019-04-05T09:31:54.450Z,13.43
2019-04-05T09:34:23.293Z,10.98
2019-04-05T09:36:51.675Z,12.30
2019-04-05T09:39:20.127Z,12.43
2019-04-05T09:41:48.428Z,10.98
2019-04-05T09:44:16.971Z,12.40
2019-04-05T09:46:49.480Z,12.80
2019-04-05T09:49:15.403Z,12.30
2019-04-05T09:51:43.795Z,11.65
2019-04-05T09:54:12.261Z,12.00
2019-04-05T09:56:42.029Z,10.48
2019-04-05T09:59:10.446Z,11.80
2019-04-05T10:01:38.938Z,11.50
2019-04-05T10:04:07.994Z,11.95
2019-04-05T10:06:36.554Z,11.85
2019-04-05T10:09:07.710Z,11.97
2019-04-05T10:11:36.170Z,11.87
2019-04-05T10:14:04.730Z,10.45
2019-04-05T10:16:33.133Z,11.10
2019-04-05T10:19:01.506Z,12.55
2019-04-05T10:21:29.919Z,11.95
2019-04-05T10:23:58.377Z,11.20
2019-04-05T10:26:26.822Z,10.90
2019-04-05T10:28:55.229Z,11.28
2019-04-05T10:31:23.601Z,10.58
2019-04-05T10:33:52.061Z,11.30
2019-04-05T10:36:20.468Z,10.00
2019-04-05T10:38:48.873Z,10.00
2019-04-05T10:41:17.271Z,10.70
2019-04-05T10:43:46.210Z,10.18
2019-04-05T10:46:14.727Z,10.03
2019-04-05T10:48:43.125Z,10.67
2019-04-05T10:51:11.497Z,10.80
2019-04-05T10:53:39.940Z,9.80
2019-04-05T10:56:08.329Z,10.05
2019-04-05T10:58:36.731Z,10.00
2019-04-05T11:01:05.095Z,9.00
2019-04-05T11:03:33.493Z,9.65
2019-04-05T11:06:02.094Z,8.58
2019-04-05T11:08:30.482Z,9.50
2019-04-05T11:10:58.862Z,8.90
2019-04-05T11:13:27.370Z,9.30
2019-04-05T11:15:57.068Z,9.25
2019-04-05T11:18:25.466Z,8.90
2019-04-05T11:20:53.806Z,7.80
2019-04-05T11:23:22.183Z,8.78
2019-04-05T11:25:51.665Z,8.73
2019-04-05T11:28:19.977Z,8.88
2019-04-05T11:30:48.864Z,8.43
2019-04-05T11:33:19.771Z,8.70
2019-04-05T11:35:47.398Z,8.45
2019-04-05T11:38:15.863Z,8.43
2019-04-05T11:40:44.718Z,8.05
2019-04-05T11:43:13.178Z,8.30
2019-04-05T11:45:41.896Z,8.60
2019-04-05T11:48:11.497Z,8.05
2019-04-05T11:50:39.843Z,8.30
2019-04-05T11:53:08.220Z,8.38
2019-04-05T11:55:36.631Z,9.10
2019-04-05T11:58:05.030Z,8.43
2019-04-05T12:00:50.083Z,8.33
2019-04-05T12:03:20.064Z,8.10
2019-04-05T12:05:48.558Z,8.27
2019-04-05T12:08:16.914Z,8.90
2019-04-05T12:10:45.304Z,8.13
2019-04-05T12:13:13.691Z,7.55
2019-04-05T12:15:42.102Z,7.72
2019-04-05T12:18:10.401Z,8.25
2019-04-05T12:20:49.189Z,8.33
2019-04-05T12:23:08.815Z,8.80
2019-04-05T12:25:37.225Z,8.30
2019-04-05T12:28:07.697Z,8.18
2019-04-05T12:30:35.709Z,8.05
2019-04-05T12:33:13.766Z,8.07
2019-04-05T12:35:37.365Z,8.60
2019-04-05T12:38:06.839Z,7.60
2019-04-05T12:40:34.765Z,8.28
2019-04-05T12:43:03.227Z,9.13
2019-04-05T12:45:31.684Z,8.40
2019-04-05T12:48:00.170Z,8.20
2019-04-05T12:50:28.568Z,8.83
2019-04-05T12:52:57.460Z,8.05
2019-04-05T12:55:29.128Z,7.80
2019-04-05T12:57:57.527Z,8.47
2019-04-05T13:00:26.464Z,7.92
2019-04-05T13:02:56.990Z,7.55
2019-04-05T13:05:25.095Z,7.83
2019-04-05T13:07:54.221Z,8.15
2019-04-05T13:10:25.151Z,8.25
2019-04-05T13:12:56.843Z,9.15
2019-04-05T13:15:22.689Z,7.95
2019-04-05T13:17:51.054Z,8.10
2019-04-05T13:20:19.457Z,9.10
2019-04-05T13:22:47.869Z,8.20
2019-04-05T13:25:16.246Z,8.50
2019-04-05T13:27:44.634Z,9.20
2019-04-05T13:30:13.116Z,8.75
2019-04-05T13:32:41.485Z,8.65
2019-04-05T13:35:09.879Z,8.40
2019-04-05T13:37:38.288Z,9.30
2019-04-05T13:40:07.600Z,9.35
2019-04-05T13:42:35.994Z,9.00
2019-04-05T13:45:06.868Z,9.50
2019-04-05T13:47:37.856Z,8.48
2019-04-05T13:50:05.909Z,7.63
2019-04-05T13:52:34.353Z,8.23
2019-04-05T13:55:02.667Z,7.70
2019-04-05T13:57:31.197Z,8.33
2019-04-05T13:59:59.669Z,8.55
2019-04-05T14:02:28.050Z,8.30
2019-04-05T14:04:56.434Z,7.25
2019-04-05T14:07:30.649Z,8.25
2019-04-05T14:09:59.221Z,8.03
2019-04-05T14:12:27.629Z,7.47
2019-04-05T14:14:57.011Z,7.78
2019-04-05T14:17:25.534Z,8.70
2019-04-05T14:19:53.962Z,8.18
2019-04-05T14:22:22.965Z,8.13
2019-04-05T14:24:52.490Z,8.53
2019-04-05T14:27:21.638Z,8.23
2019-04-05T14:29:50.187Z,7.67
2019-04-05T14:32:26.429Z,8.13
2019-04-05T14:34:53.998Z,8.23
2019-04-05T14:37:24.818Z,8.10
2019-04-05T14:39:51.450Z,8.00
2019-04-05T14:42:19.909Z,7.35
2019-04-05T14:44:48.280Z,7.63
2019-04-05T14:47:16.661Z,8.10
2019-04-05T14:49:45.064Z,8.50
2019-04-05T14:52:13.427Z,8.13
2019-04-05T14:54:43.265Z,8.68
2019-04-05T14:57:11.909Z,8.23
2019-04-05T14:59:41.023Z,8.80
2019-04-05T15:02:09.668Z,8.95
2019-04-05T15:04:38.051Z,8.95
2019-04-05T15:07:06.499Z,8.95
2019-04-05T15:09:34.945Z,8.68
2019-04-05T15:12:03.864Z,8.40
2019-04-05T15:14:32.329Z,9.40
2019-04-05T15:17:00.705Z,9.03
2019-04-05T15:19:29.086Z,9.45
2019-04-05T15:22:05.565Z,8.98
2019-04-05T15:24:27.529Z,9.50
2019-04-05T15:26:55.940Z,9.15
2019-04-05T15:29:26.120Z,9.27
2019-04-05T15:31:55.531Z,10.33
2019-04-05T15:34:27.972Z,8.40
2019-04-05T15:36:54.553Z,9.48
2019-04-05T15:39:22.960Z,8.55
2019-04-05T15:41:51.318Z,9.83
2019-04-05T15:44:19.618Z,9.13
2019-04-05T15:46:48.005Z,9.93
2019-04-05T15:49:16.309Z,9.98
2019-04-05T15:51:44.696Z,9.10
2019-04-05T15:54:13.091Z,9.20
2019-04-05T15:56:41.509Z,9.20
2019-04-05T15:59:09.988Z,9.13
2019-04-05T16:01:39.152Z,8.30
2019-04-05T16:04:07.593Z,9.23
2019-04-05T16:06:38.880Z,10.32
2019-04-05T16:09:07.806Z,9.70
2019-04-05T16:11:36.231Z,9.45
2019-04-05T16:14:04.637Z,9.60
2019-04-05T16:16:33.006Z,9.00
2019-04-05T16:19:01.399Z,9.63
2019-04-05T16:21:29.790Z,10.23
2019-04-05T16:23:58.198Z,10.00
2019-04-05T16:26:26.594Z,9.73
2019-04-05T16:28:55.127Z,9.53
2019-04-05T16:31:23.505Z,9.48
2019-04-05T16:33:51.952Z,10.03
2019-04-05T16:36:20.271Z,9.33
2019-04-05T16:38:48.671Z,9.40
2019-04-05T16:41:17.169Z,9.60
2019-04-05T16:43:45.551Z,9.93
2019-04-05T16:46:13.925Z,9.48
2019-04-05T16:48:42.304Z,9.23
2019-04-05T16:51:10.706Z,9.63
2019-04-05T16:53:40.719Z,10.78
2019-04-05T16:56:09.137Z,9.43
2019-04-05T16:58:37.507Z,10.65
2019-04-05T17:01:05.973Z,10.68
2019-04-05T17:03:34.406Z,10.75
2019-04-05T17:06:02.917Z,10.50
2019-04-05T17:08:31.417Z,9.70
2019-04-05T17:10:59.786Z,11.30
2019-04-05T17:13:28.206Z,10.95
2019-04-05T17:15:56.576Z,11.20
2019-04-05T17:18:24.980Z,10.82
2019-04-05T17:20:54.326Z,10.43
2019-04-05T17:23:22.720Z,11.15
2019-04-05T17:25:51.107Z,11.25
2019-04-05T17:28:19.525Z,12.50
2019-04-05T17:30:47.903Z,10.93
2019-04-05T17:33:16.361Z,11.43
2019-04-05T17:35:44.769Z,11.35
2019-04-05T17:38:14.053Z,11.10
2019-04-05T17:40:42.429Z,11.53
2019-04-05T17:43:10.823Z,11.73
2019-04-05T17:45:39.229Z,12.35
2019-04-05T17:48:07.628Z,12.80
2019-04-05T17:50:36.022Z,11.15
2019-04-05T17:53:11.972Z,12.82
2019-04-05T17:55:34.466Z,11.88
2019-04-05T17:58:05.501Z,12.88
2019-04-05T18:00:34.058Z,11.93
2019-04-05T18:03:02.615Z,12.37
2019-04-05T18:05:31.016Z,10.88
2019-04-05T18:07:59.508Z,11.20
2019-04-05T18:10:27.959Z,11.50
2019-04-05T18:12:56.623Z,12.53
2019-04-05T18:15:25.123Z,12.03
2019-04-05T18:17:53.516Z,12.00
2019-04-05T18:20:21.978Z,11.18
2019-04-05T18:22:50.463Z,11.57
2019-04-05T18:25:20.258Z,11.43
2019-04-05T18:27:48.663Z,10.72
2019-04-05T18:30:17.100Z,11.60
2019-04-05T18:32:45.423Z,11.63
2019-04-05T18:35:13.931Z,11.45
2019-04-05T18:37:42.336Z,11.57
2019-04-05T18:40:11.121Z,11.33
2019-04-05T18:42:39.514Z,11.05
2019-04-05T18:45:07.883Z,11.73
2019-04-05T18:47:36.296Z,11.22
2019-04-05T18:50:06.493Z,12.03
2019-04-05T18:52:34.966Z,11.48
2019-04-05T18:55:04.477Z,11.65
2019-04-05T18:57:32.897Z,12.10
2019-04-05T19:00:01.203Z,11.13
2019-04-05T19:02:29.569Z,10.85
2019-04-05T19:04:57.989Z,12.10
2019-04-05T19:07:26.435Z,12.15
2019-04-05T19:09:54.888Z,11.83
2019-04-05T19:12:23.281Z,11.80
2019-04-05T19:14:51.687Z,11.90
2019-04-05T19:17:24.181Z,11.80
2019-04-05T19:19:50.139Z,12.43
2019-04-05T19:22:18.523Z,12.25
2019-04-05T19:24:46.938Z,12.58
2019-04-05T19:27:15.356Z,13.48
2019-04-05T19:29:43.770Z,12.15
2019-04-05T19:49:45.259Z,15.60
2019-04-05T19:52:18.214Z,14.87
2019-04-05T19:54:46.677Z,15.45
2019-04-05T19:57:15.076Z,16.75
2019-04-05T19:59:43.469Z,15.80
2019-04-05T20:02:11.937Z,16.82
2019-04-05T20:04:40.313Z,15.57
2019-04-05T20:07:08.792Z,16.23
2019-04-05T20:09:38.090Z,16.32
2019-04-05T20:12:06.522Z,16.37
2019-04-05T20:14:34.970Z,16.23
2019-04-05T20:17:03.372Z,16.10
2019-04-05T20:19:31.819Z,16.37
2019-04-05T20:22:02.136Z,16.60
2019-04-05T20:24:30.298Z,15.95
2019-04-05T20:26:58.610Z,16.95
2019-04-05T20:29:26.982Z,17.10
2019-04-05T20:31:56.130Z,16.12
2019-04-05T20:34:24.508Z,15.60
2019-04-05T20:36:52.941Z,15.53
2019-04-05T20:39:21.297Z,17.05
2019-04-05T20:41:49.757Z,16.90
2019-04-05T20:44:18.156Z,17.42
2019-04-05T20:46:46.701Z,16.77
2019-04-05T20:49:15.483Z,16.85
2019-04-05T20:51:43.862Z,16.17
2019-04-05T20:54:12.343Z,16.32
2019-04-05T20:56:40.767Z,15.55
2019-04-05T20:59:09.217Z,15.80
2019-04-05T21:01:37.665Z,17.48
2019-04-05T21:04:06.057Z,16.93
2019-04-05T21:06:34.384Z,16.35
2019-04-05T21:09:04.466Z,15.98
2019-04-05T21:11:33.202Z,16.60
2019-04-05T21:14:01.686Z,16.37
2019-04-05T21:16:30.070Z,16.95
2019-04-05T21:18:58.527Z,16.13
2019-04-05T21:21:26.898Z,17.00
2019-04-05T21:23:55.262Z,17.90
2019-04-05T21:26:23.678Z,15.83
2019-04-05T21:28:52.031Z,16.95
2019-04-05T21:31:20.433Z,18.20
2019-04-05T21:33:48.829Z,17.45
2019-04-05T21:36:17.209Z,16.45
2019-04-05T21:38:45.663Z,17.42
2019-04-05T21:41:14.079Z,16.62
2019-04-05T21:43:42.577Z,17.05
2019-04-05T21:46:10.975Z,16.97
2019-04-05T21:48:39.518Z,17.15
2019-04-05T21:51:07.877Z,17.12
2019-04-05T21:53:36.249Z,17.42
2019-04-05T21:56:04.636Z,17.35
2019-04-05T21:58:32.998Z,17.90
2019-04-05T22:01:02.992Z,17.20
2019-04-05T22:03:31.381Z,16.47
2019-04-05T22:05:59.730Z,16.77
2019-04-05T22:08:29.110Z,17.12
2019-04-05T22:10:57.569Z,17.57
2019-04-05T22:13:25.940Z,16.90
2019-04-05T22:15:54.314Z,19.10
2019-04-05T22:18:22.628Z,17.35
2019-04-05T22:20:50.999Z,18.05
2019-04-05T22:23:19.465Z,16.93
2019-04-05T22:25:47.793Z,17.30
2019-04-05T22:28:16.178Z,17.95
2019-04-05T22:30:44.691Z,16.67
2019-04-05T22:33:13.019Z,16.60
2019-04-05T22:35:41.390Z,16.70
2019-04-05T22:38:09.787Z,17.53
2019-04-05T22:40:38.229Z,17.70
2019-04-05T22:43:06.604Z,17.70
2019-04-05T22:45:34.971Z,16.32
2019-04-05T22:48:04.162Z,17.68
2019-04-05T22:50:32.627Z,17.17
2019-04-05T22:53:01.034Z,18.03
2019-04-05T22:55:29.477Z,17.77
2019-04-05T22:57:57.850Z,16.52
2019-04-05T23:00:26.253Z,18.15
2019-04-05T23:02:54.656Z,18.23
2019-04-05T23:05:23.024Z,17.75
2019-04-05T23:07:51.486Z,17.12
2019-04-05T23:10:19.866Z,18.02
2019-04-05T23:12:48.246Z,18.57
2019-04-05T23:15:16.624Z,17.65
2019-04-05T23:17:44.925Z,18.05
2019-04-05T23:20:13.309Z,19.37
2019-04-05T23:22:41.673Z,16.82
2019-04-05T23:25:21.038Z,18.37
2019-04-05T23:27:40.189Z,18.25
2019-04-05T23:30:09.141Z,16.97
2019-04-05T23:32:37.575Z,18.55
2019-04-05T23:35:06.721Z,18.40
2019-04-05T23:37:35.157Z,19.15
2019-04-05T23:40:04.311Z,17.40
2019-04-05T23:42:32.704Z,17.37
2019-04-05T23:45:02.061Z,19.27
2019-04-05T23:47:30.435Z,18.17
2019-04-05T23:49:58.818Z,18.42
2019-04-05T23:52:27.138Z,17.87
2019-04-05T23:54:55.454Z,18.75
2019-04-05T23:57:23.779Z,19.00
2019-04-05T23:59:52.178Z,18.55
